sensor_id;sensor_type;location;lat;lon;timestamp;temperature;humidity
28524;DHT22;15734;50.904;6.922;2023-02-15T00:01:16;3.20;99.90
28524;DHT22;15734;50.904;6.922;2023-02-15T00:03:42;3.20;99.90
28524;DHT22;15734;50.904;6.922;2023-02-15T00:06:07;3.10;99.90
28524;DHT22;15734;50.904;6.922;2023-02-15T00:08:33;3.10;99.90
28524;DHT22;15734;50.904;6.922;2023-02-15T00:11:08;3.10;99.90
28524;DHT22;15734;50.904;6.922;2023-02-15T00:13:33;3.10;99.90
28524;DHT22;15734;50.904;6.922;2023-02-15T00:16:02;3.10;99.90
28524;DHT22;15734;50.904;6.922;2023-02-15T00:18:27;3.10;99.90
28524;DHT22;15734;50.904;6.922;2023-02-15T00:20:53;3.10;99.90
28524;DHT22;15734;50.904;6.922;2023-02-15T00:23:18;3.00;99.90
28524;DHT22;15734;50.904;6.922;2023-02-15T00:25:44;3.00;99.90
28524;DHT22;15734;50.904;6.922;2023-02-15T00:28:09;2.90;99.90
28524;DHT22;15734;50.904;6.922;2023-02-15T00:30:34;2.90;99.90
28524;DHT22;15734;50.904;6.922;2023-02-15T00:33:00;2.90;99.90
28524;DHT22;15734;50.904;6.922;2023-02-15T00:35:25;2.80;99.90
28524;DHT22;15734;50.904;6.922;2023-02-15T00:37:51;2.90;99.90
28524;DHT22;15734;50.904;6.922;2023-02-15T00:40:17;2.80;99.90
28524;DHT22;15734;50.904;6.922;2023-02-15T00:42:43;2.80;99.90
28524;DHT22;15734;50.904;6.922;2023-02-15T00:45:08;2.70;99.90
28524;DHT22;15734;50.904;6.922;2023-02-15T00:47:34;2.70;99.90
28524;DHT22;15734;50.904;6.922;2023-02-15T00:49:59;2.80;99.90
28524;DHT22;15734;50.904;6.922;2023-02-15T00:52:25;2.80;99.90
28524;DHT22;15734;50.904;6.922;2023-02-15T00:54:50;2.80;99.90
28524;DHT22;15734;50.904;6.922;2023-02-15T00:57:16;2.80;99.90
28524;DHT22;15734;50.904;6.922;2023-02-15T00:59:41;2.70;99.90
28524;DHT22;15734;50.904;6.922;2023-02-15T01:02:06;2.80;99.90
28524;DHT22;15734;50.904;6.922;2023-02-15T01:04:32;2.80;99.90
28524;DHT22;15734;50.904;6.922;2023-02-15T01:06:57;2.70;99.90
28524;DHT22;15734;50.904;6.922;2023-02-15T01:09:23;2.70;99.90
28524;DHT22;15734;50.904;6.922;2023-02-15T01:11:48;2.60;99.90
28524;DHT22;15734;50.904;6.922;2023-02-15T01:14:14;2.70;99.90
28524;DHT22;15734;50.904;6.922;2023-02-15T01:16:39;2.70;99.90
28524;DHT22;15734;50.904;6.922;2023-02-15T01:19:05;2.70;99.90
28524;DHT22;15734;50.904;6.922;2023-02-15T01:21:31;2.70;99.90
28524;DHT22;15734;50.904;6.922;2023-02-15T01:24:00;2.60;99.90
28524;DHT22;15734;50.904;6.922;2023-02-15T01:26:25;2.60;99.90
28524;DHT22;15734;50.904;6.922;2023-02-15T01:28:51;2.60;99.90
28524;DHT22;15734;50.904;6.922;2023-02-15T01:31:17;2.70;99.90
28524;DHT22;15734;50.904;6.922;2023-02-15T01:33:43;2.60;99.90
28524;DHT22;15734;50.904;6.922;2023-02-15T01:36:08;2.60;99.90
28524;DHT22;15734;50.904;6.922;2023-02-15T01:38:34;2.50;99.90
28524;DHT22;15734;50.904;6.922;2023-02-15T01:41:00;2.50;99.90
28524;DHT22;15734;50.904;6.922;2023-02-15T01:43:48;2.50;99.90
28524;DHT22;15734;50.904;6.922;2023-02-15T01:46:15;2.50;99.90
28524;DHT22;15734;50.904;6.922;2023-02-15T01:48:43;2.60;99.90
28524;DHT22;15734;50.904;6.922;2023-02-15T01:51:09;2.50;99.90
28524;DHT22;15734;50.904;6.922;2023-02-15T01:53:41;2.60;99.90
28524;DHT22;15734;50.904;6.922;2023-02-15T01:56:09;2.60;99.90
28524;DHT22;15734;50.904;6.922;2023-02-15T01:58:36;2.50;99.90
28524;DHT22;15734;50.904;6.922;2023-02-15T02:01:02;2.50;99.90
28524;DHT22;15734;50.904;6.922;2023-02-15T02:06:13;2.50;99.90
28524;DHT22;15734;50.904;6.922;2023-02-15T02:08:39;2.40;99.90
28524;DHT22;15734;50.904;6.922;2023-02-15T02:11:11;2.40;99.90
28524;DHT22;15734;50.904;6.922;2023-02-15T02:13:37;2.40;99.90
28524;DHT22;15734;50.904;6.922;2023-02-15T02:18:43;2.40;99.90
28524;DHT22;15734;50.904;6.922;2023-02-15T02:34:59;2.30;99.90
28524;DHT22;15734;50.904;6.922;2023-02-15T02:40:13;2.30;99.90
28524;DHT22;15734;50.904;6.922;2023-02-15T02:42:44;2.30;99.90
28524;DHT22;15734;50.904;6.922;2023-02-15T02:45:16;2.30;99.90
28524;DHT22;15734;50.904;6.922;2023-02-15T02:47:46;2.20;99.90
28524;DHT22;15734;50.904;6.922;2023-02-15T02:50:14;2.20;99.90
28524;DHT22;15734;50.904;6.922;2023-02-15T02:57:33;2.10;99.90
28524;DHT22;15734;50.904;6.922;2023-02-15T03:00:00;2.10;99.90
28524;DHT22;15734;50.904;6.922;2023-02-15T03:02:29;2.10;99.90
28524;DHT22;15734;50.904;6.922;2023-02-15T03:05:00;2.10;99.90
28524;DHT22;15734;50.904;6.922;2023-02-15T03:07:29;2.20;99.90
28524;DHT22;15734;50.904;6.922;2023-02-15T03:09:56;2.10;99.90
28524;DHT22;15734;50.904;6.922;2023-02-15T03:12:24;2.10;99.90
28524;DHT22;15734;50.904;6.922;2023-02-15T03:14:51;2.00;99.90
28524;DHT22;15734;50.904;6.922;2023-02-15T03:17:18;2.10;99.90
28524;DHT22;15734;50.904;6.922;2023-02-15T03:19:45;2.00;99.90
28524;DHT22;15734;50.904;6.922;2023-02-15T03:22:20;2.00;99.90
28524;DHT22;15734;50.904;6.922;2023-02-15T03:27:14;2.00;99.90
28524;DHT22;15734;50.904;6.922;2023-02-15T03:29:42;2.00;99.90
28524;DHT22;15734;50.904;6.922;2023-02-15T03:32:09;2.00;99.90
28524;DHT22;15734;50.904;6.922;2023-02-15T03:34:36;2.00;99.90
28524;DHT22;15734;50.904;6.922;2023-02-15T03:37:17;2.00;99.90
28524;DHT22;15734;50.904;6.922;2023-02-15T03:39:47;2.00;99.90
28524;DHT22;15734;50.904;6.922;2023-02-15T03:42:18;1.90;99.90
28524;DHT22;15734;50.904;6.922;2023-02-15T03:47:15;2.00;99.90
28524;DHT22;15734;50.904;6.922;2023-02-15T03:49:44;2.00;99.90
28524;DHT22;15734;50.904;6.922;2023-02-15T03:52:11;1.90;99.90
28524;DHT22;15734;50.904;6.922;2023-02-15T03:54:36;1.90;99.90
28524;DHT22;15734;50.904;6.922;2023-02-15T04:00:08;1.90;99.90
28524;DHT22;15734;50.904;6.922;2023-02-15T04:05:37;1.80;99.90
28524;DHT22;15734;50.904;6.922;2023-02-15T04:08:03;1.80;99.90
28524;DHT22;15734;50.904;6.922;2023-02-15T04:10:28;1.80;99.90
28524;DHT22;15734;50.904;6.922;2023-02-15T04:13:13;1.80;99.90
28524;DHT22;15734;50.904;6.922;2023-02-15T04:15:38;1.80;99.90
28524;DHT22;15734;50.904;6.922;2023-02-15T04:18:22;1.80;99.90
28524;DHT22;15734;50.904;6.922;2023-02-15T04:21:06;1.80;99.90
28524;DHT22;15734;50.904;6.922;2023-02-15T04:23:51;1.80;99.90
28524;DHT22;15734;50.904;6.922;2023-02-15T04:26:35;1.70;99.90
28524;DHT22;15734;50.904;6.922;2023-02-15T04:29:00;1.70;99.90
28524;DHT22;15734;50.904;6.922;2023-02-15T04:31:26;1.80;99.90
28524;DHT22;15734;50.904;6.922;2023-02-15T04:33:51;1.80;99.90
28524;DHT22;15734;50.904;6.922;2023-02-15T04:36:16;1.90;99.90
28524;DHT22;15734;50.904;6.922;2023-02-15T04:38:42;1.80;99.90
28524;DHT22;15734;50.904;6.922;2023-02-15T04:41:07;1.80;99.90
28524;DHT22;15734;50.904;6.922;2023-02-15T04:43:34;1.80;99.90
28524;DHT22;15734;50.904;6.922;2023-02-15T04:45:59;1.80;99.90
28524;DHT22;15734;50.904;6.922;2023-02-15T04:48:24;1.80;99.90
28524;DHT22;15734;50.904;6.922;2023-02-15T04:50:50;1.80;99.90
28524;DHT22;15734;50.904;6.922;2023-02-15T04:53:15;1.70;99.90
28524;DHT22;15734;50.904;6.922;2023-02-15T04:55:42;1.70;99.90
28524;DHT22;15734;50.904;6.922;2023-02-15T04:58:07;1.70;99.90
28524;DHT22;15734;50.904;6.922;2023-02-15T05:00:33;1.70;99.90
28524;DHT22;15734;50.904;6.922;2023-02-15T05:02:58;1.70;99.90
28524;DHT22;15734;50.904;6.922;2023-02-15T05:05:24;1.60;99.90
28524;DHT22;15734;50.904;6.922;2023-02-15T05:07:49;1.70;99.90
28524;DHT22;15734;50.904;6.922;2023-02-15T05:10:15;1.70;99.90
28524;DHT22;15734;50.904;6.922;2023-02-15T05:12:40;1.70;99.90
28524;DHT22;15734;50.904;6.922;2023-02-15T05:15:06;1.70;99.90
28524;DHT22;15734;50.904;6.922;2023-02-15T05:17:31;1.60;99.90
28524;DHT22;15734;50.904;6.922;2023-02-15T05:19:57;1.70;99.90
28524;DHT22;15734;50.904;6.922;2023-02-15T05:22:22;1.60;99.90
28524;DHT22;15734;50.904;6.922;2023-02-15T05:24:47;1.60;99.90
28524;DHT22;15734;50.904;6.922;2023-02-15T05:27:32;1.50;99.90
28524;DHT22;15734;50.904;6.922;2023-02-15T05:30:16;1.50;99.90
28524;DHT22;15734;50.904;6.922;2023-02-15T05:32:41;1.60;99.90
28524;DHT22;15734;50.904;6.922;2023-02-15T05:35:07;1.60;99.90
28524;DHT22;15734;50.904;6.922;2023-02-15T05:37:33;1.60;99.90
28524;DHT22;15734;50.904;6.922;2023-02-15T05:39:58;1.60;99.90
28524;DHT22;15734;50.904;6.922;2023-02-15T05:42:24;1.50;99.90
28524;DHT22;15734;50.904;6.922;2023-02-15T05:44:49;1.60;99.90
28524;DHT22;15734;50.904;6.922;2023-02-15T05:47:15;1.60;99.90
28524;DHT22;15734;50.904;6.922;2023-02-15T05:49:40;1.60;99.90
28524;DHT22;15734;50.904;6.922;2023-02-15T05:52:05;1.70;99.90
28524;DHT22;15734;50.904;6.922;2023-02-15T05:54:31;1.60;99.90
28524;DHT22;15734;50.904;6.922;2023-02-15T05:56:56;1.60;99.90
28524;DHT22;15734;50.904;6.922;2023-02-15T05:59:22;1.60;99.90
28524;DHT22;15734;50.904;6.922;2023-02-15T06:01:47;1.60;99.90
28524;DHT22;15734;50.904;6.922;2023-02-15T06:04:13;1.60;99.90
28524;DHT22;15734;50.904;6.922;2023-02-15T06:06:38;1.60;99.90
28524;DHT22;15734;50.904;6.922;2023-02-15T06:09:04;1.60;99.90
28524;DHT22;15734;50.904;6.922;2023-02-15T06:11:29;1.60;99.90
28524;DHT22;15734;50.904;6.922;2023-02-15T06:13:55;1.60;99.90
28524;DHT22;15734;50.904;6.922;2023-02-15T06:16:20;1.60;99.90
28524;DHT22;15734;50.904;6.922;2023-02-15T06:18:46;1.50;99.90
28524;DHT22;15734;50.904;6.922;2023-02-15T06:21:11;1.60;99.90
28524;DHT22;15734;50.904;6.922;2023-02-15T06:23:37;1.60;99.90
28524;DHT22;15734;50.904;6.922;2023-02-15T06:26:03;1.50;99.90
28524;DHT22;15734;50.904;6.922;2023-02-15T06:28:28;1.50;99.90
28524;DHT22;15734;50.904;6.922;2023-02-15T06:30:54;1.60;99.90
28524;DHT22;15734;50.904;6.922;2023-02-15T06:33:19;1.60;99.90
28524;DHT22;15734;50.904;6.922;2023-02-15T06:35:45;1.50;99.90
28524;DHT22;15734;50.904;6.922;2023-02-15T06:38:11;1.50;99.90
28524;DHT22;15734;50.904;6.922;2023-02-15T06:40:36;1.50;99.90
28524;DHT22;15734;50.904;6.922;2023-02-15T06:43:02;1.50;99.90
28524;DHT22;15734;50.904;6.922;2023-02-15T06:45:27;1.50;99.90
28524;DHT22;15734;50.904;6.922;2023-02-15T06:47:53;1.60;99.90
28524;DHT22;15734;50.904;6.922;2023-02-15T06:50:18;1.60;99.90
28524;DHT22;15734;50.904;6.922;2023-02-15T06:52:43;1.50;99.90
28524;DHT22;15734;50.904;6.922;2023-02-15T06:55:09;1.60;99.90
28524;DHT22;15734;50.904;6.922;2023-02-15T06:57:34;1.60;99.90
28524;DHT22;15734;50.904;6.922;2023-02-15T07:00:00;1.60;99.90
28524;DHT22;15734;50.904;6.922;2023-02-15T07:02:26;1.60;99.90
28524;DHT22;15734;50.904;6.922;2023-02-15T07:04:52;1.60;99.90
28524;DHT22;15734;50.904;6.922;2023-02-15T07:07:17;1.70;99.90
28524;DHT22;15734;50.904;6.922;2023-02-15T07:09:42;1.60;99.90
28524;DHT22;15734;50.904;6.922;2023-02-15T07:12:09;1.60;99.90
28524;DHT22;15734;50.904;6.922;2023-02-15T07:14:53;1.50;99.90
28524;DHT22;15734;50.904;6.922;2023-02-15T07:17:18;1.60;99.90
28524;DHT22;15734;50.904;6.922;2023-02-15T07:19:44;1.60;99.90
28524;DHT22;15734;50.904;6.922;2023-02-15T07:22:09;1.70;99.90
28524;DHT22;15734;50.904;6.922;2023-02-15T07:24:35;1.70;99.90
28524;DHT22;15734;50.904;6.922;2023-02-15T07:27:00;1.70;99.90
28524;DHT22;15734;50.904;6.922;2023-02-15T07:29:26;1.70;99.90
28524;DHT22;15734;50.904;6.922;2023-02-15T07:31:51;1.70;99.90
28524;DHT22;15734;50.904;6.922;2023-02-15T07:34:17;1.70;99.90
28524;DHT22;15734;50.904;6.922;2023-02-15T07:36:42;1.80;99.90
28524;DHT22;15734;50.904;6.922;2023-02-15T07:39:09;1.80;99.90
28524;DHT22;15734;50.904;6.922;2023-02-15T07:41:35;1.80;99.90
28524;DHT22;15734;50.904;6.922;2023-02-15T07:44:00;1.90;99.90
28524;DHT22;15734;50.904;6.922;2023-02-15T07:46:26;1.90;99.90
28524;DHT22;15734;50.904;6.922;2023-02-15T07:48:51;1.90;99.90
28524;DHT22;15734;50.904;6.922;2023-02-15T07:51:17;1.90;99.90
28524;DHT22;15734;50.904;6.922;2023-02-15T07:53:42;2.00;99.90
28524;DHT22;15734;50.904;6.922;2023-02-15T07:56:11;2.00;99.90
28524;DHT22;15734;50.904;6.922;2023-02-15T07:58:37;2.00;99.90
28524;DHT22;15734;50.904;6.922;2023-02-15T08:01:25;2.20;99.90
28524;DHT22;15734;50.904;6.922;2023-02-15T08:03:51;2.10;99.90
28524;DHT22;15734;50.904;6.922;2023-02-15T08:06:17;2.20;99.90
28524;DHT22;15734;50.904;6.922;2023-02-15T08:08:42;2.20;99.90
28524;DHT22;15734;50.904;6.922;2023-02-15T08:14:02;2.30;99.90
28524;DHT22;15734;50.904;6.922;2023-02-15T08:16:36;2.40;99.90
28524;DHT22;15734;50.904;6.922;2023-02-15T08:19:03;2.50;99.90
28524;DHT22;15734;50.904;6.922;2023-02-15T08:21:29;2.50;99.90
28524;DHT22;15734;50.904;6.922;2023-02-15T08:23:55;2.50;99.90
28524;DHT22;15734;50.904;6.922;2023-02-15T08:26:22;2.60;99.90
28524;DHT22;15734;50.904;6.922;2023-02-15T08:28:47;2.60;99.90
28524;DHT22;15734;50.904;6.922;2023-02-15T08:31:14;2.60;99.90
28524;DHT22;15734;50.904;6.922;2023-02-15T08:33:39;2.70;99.90
28524;DHT22;15734;50.904;6.922;2023-02-15T08:36:06;2.80;99.90
28524;DHT22;15734;50.904;6.922;2023-02-15T08:38:33;2.80;99.90
28524;DHT22;15734;50.904;6.922;2023-02-15T08:41:08;2.80;99.90
28524;DHT22;15734;50.904;6.922;2023-02-15T08:43:33;2.90;99.90
28524;DHT22;15734;50.904;6.922;2023-02-15T08:45:59;3.00;99.90
28524;DHT22;15734;50.904;6.922;2023-02-15T08:48:24;3.10;99.90
28524;DHT22;15734;50.904;6.922;2023-02-15T08:50:50;3.20;99.90
28524;DHT22;15734;50.904;6.922;2023-02-15T08:53:15;3.20;99.90
28524;DHT22;15734;50.904;6.922;2023-02-15T08:55:41;3.30;99.90
28524;DHT22;15734;50.904;6.922;2023-02-15T08:58:06;3.30;99.90
28524;DHT22;15734;50.904;6.922;2023-02-15T09:00:31;3.40;99.90
28524;DHT22;15734;50.904;6.922;2023-02-15T09:02:57;3.50;99.90
28524;DHT22;15734;50.904;6.922;2023-02-15T09:05:22;3.60;99.90
28524;DHT22;15734;50.904;6.922;2023-02-15T09:07:49;3.70;99.90
28524;DHT22;15734;50.904;6.922;2023-02-15T09:10:14;3.70;99.90
28524;DHT22;15734;50.904;6.922;2023-02-15T09:12:40;3.80;99.90
28524;DHT22;15734;50.904;6.922;2023-02-15T09:15:05;3.90;99.90
28524;DHT22;15734;50.904;6.922;2023-02-15T09:17:31;4.00;99.90
28524;DHT22;15734;50.904;6.922;2023-02-15T09:19:56;4.10;99.90
28524;DHT22;15734;50.904;6.922;2023-02-15T09:22:22;4.20;99.90
28524;DHT22;15734;50.904;6.922;2023-02-15T09:24:47;4.30;99.90
28524;DHT22;15734;50.904;6.922;2023-02-15T09:27:13;4.40;99.90
28524;DHT22;15734;50.904;6.922;2023-02-15T09:29:38;4.50;99.90
28524;DHT22;15734;50.904;6.922;2023-02-15T09:32:04;4.60;99.90
28524;DHT22;15734;50.904;6.922;2023-02-15T09:34:29;4.80;99.90
28524;DHT22;15734;50.904;6.922;2023-02-15T09:36:55;4.90;99.90
28524;DHT22;15734;50.904;6.922;2023-02-15T09:39:25;5.00;99.90
28524;DHT22;15734;50.904;6.922;2023-02-15T09:42:11;5.20;99.90
28524;DHT22;15734;50.904;6.922;2023-02-15T09:50:27;5.60;99.90
28524;DHT22;15734;50.904;6.922;2023-02-15T10:08:39;6.70;99.90
28524;DHT22;15734;50.904;6.922;2023-02-15T10:11:14;6.70;99.90
28524;DHT22;15734;50.904;6.922;2023-02-15T10:14:24;6.90;99.90
28524;DHT22;15734;50.904;6.922;2023-02-15T10:16:51;7.00;99.90
28524;DHT22;15734;50.904;6.922;2023-02-15T10:22:19;7.00;99.90
28524;DHT22;15734;50.904;6.922;2023-02-15T10:27:39;7.20;99.90
28524;DHT22;15734;50.904;6.922;2023-02-15T10:30:18;7.40;99.90
28524;DHT22;15734;50.904;6.922;2023-02-15T10:33:02;7.50;99.90
28524;DHT22;15734;50.904;6.922;2023-02-15T10:35:33;7.60;99.90
28524;DHT22;15734;50.904;6.922;2023-02-15T10:41:37;7.90;99.90
28524;DHT22;15734;50.904;6.922;2023-02-15T10:48:23;8.20;99.90
28524;DHT22;15734;50.904;6.922;2023-02-15T10:50:51;8.30;99.90
28524;DHT22;15734;50.904;6.922;2023-02-15T10:56:08;8.40;99.90
28524;DHT22;15734;50.904;6.922;2023-02-15T11:01:15;8.40;99.90
28524;DHT22;15734;50.904;6.922;2023-02-15T11:06:29;8.60;99.90
28524;DHT22;15734;50.904;6.922;2023-02-15T11:09:08;8.80;99.90
28524;DHT22;15734;50.904;6.922;2023-02-15T11:11:38;8.90;99.90
28524;DHT22;15734;50.904;6.922;2023-02-15T11:14:10;9.00;99.90
28524;DHT22;15734;50.904;6.922;2023-02-15T11:16:40;9.20;99.90
28524;DHT22;15734;50.904;6.922;2023-02-15T11:19:14;9.30;99.90
28524;DHT22;15734;50.904;6.922;2023-02-15T11:21:44;9.30;99.90
28524;DHT22;15734;50.904;6.922;2023-02-15T11:24:14;9.40;99.90
28524;DHT22;15734;50.904;6.922;2023-02-15T11:26:46;9.60;99.90
28524;DHT22;15734;50.904;6.922;2023-02-15T11:29:31;9.60;99.90
28524;DHT22;15734;50.904;6.922;2023-02-15T11:34:31;9.90;99.90
28524;DHT22;15734;50.904;6.922;2023-02-15T11:36:58;10.00;99.90
28524;DHT22;15734;50.904;6.922;2023-02-15T11:39:25;10.20;99.90
28524;DHT22;15734;50.904;6.922;2023-02-15T11:41:55;10.20;99.90
28524;DHT22;15734;50.904;6.922;2023-02-15T11:44:23;10.40;99.90
28524;DHT22;15734;50.904;6.922;2023-02-15T11:46:51;10.50;99.90
28524;DHT22;15734;50.904;6.922;2023-02-15T11:49:35;10.70;99.90
28524;DHT22;15734;50.904;6.922;2023-02-15T11:52:01;10.80;99.90
28524;DHT22;15734;50.904;6.922;2023-02-15T11:54:30;11.10;99.90
28524;DHT22;15734;50.904;6.922;2023-02-15T11:56:59;11.00;99.90
28524;DHT22;15734;50.904;6.922;2023-02-15T11:59:29;11.40;99.90
28524;DHT22;15734;50.904;6.922;2023-02-15T12:01:56;11.30;99.90
28524;DHT22;15734;50.904;6.922;2023-02-15T12:04:29;11.40;99.90
28524;DHT22;15734;50.904;6.922;2023-02-15T12:11:49;12.00;99.90
28524;DHT22;15734;50.904;6.922;2023-02-15T12:14:15;12.20;99.90
28524;DHT22;15734;50.904;6.922;2023-02-15T12:16:50;12.30;99.90
28524;DHT22;15734;50.904;6.922;2023-02-15T12:21:48;12.40;99.90
28524;DHT22;15734;50.904;6.922;2023-02-15T12:24:18;12.60;99.90
28524;DHT22;15734;50.904;6.922;2023-02-15T12:26:44;12.80;99.90
28524;DHT22;15734;50.904;6.922;2023-02-15T12:29:15;12.90;99.90
28524;DHT22;15734;50.904;6.922;2023-02-15T12:31:43;13.00;99.90
28524;DHT22;15734;50.904;6.922;2023-02-15T12:34:09;13.10;99.90
28524;DHT22;15734;50.904;6.922;2023-02-15T12:36:41;13.20;99.90
28524;DHT22;15734;50.904;6.922;2023-02-15T12:39:16;13.50;99.90
28524;DHT22;15734;50.904;6.922;2023-02-15T12:41:55;13.60;99.90
28524;DHT22;15734;50.904;6.922;2023-02-15T12:44:23;13.60;99.90
28524;DHT22;15734;50.904;6.922;2023-02-15T12:49:23;13.50;99.90
28524;DHT22;15734;50.904;6.922;2023-02-15T12:51:52;13.90;99.90
28524;DHT22;15734;50.904;6.922;2023-02-15T12:56:49;13.90;99.90
28524;DHT22;15734;50.904;6.922;2023-02-15T12:59:21;13.90;99.90
28524;DHT22;15734;50.904;6.922;2023-02-15T13:01:47;14.10;99.90
28524;DHT22;15734;50.904;6.922;2023-02-15T13:04:34;14.10;99.90
28524;DHT22;15734;50.904;6.922;2023-02-15T13:06:59;14.20;99.90
28524;DHT22;15734;50.904;6.922;2023-02-15T13:14:38;14.50;99.90
28524;DHT22;15734;50.904;6.922;2023-02-15T13:17:08;14.30;99.90
28524;DHT22;15734;50.904;6.922;2023-02-15T13:19:42;14.50;99.90
28524;DHT22;15734;50.904;6.922;2023-02-15T13:22:10;14.70;99.90
28524;DHT22;15734;50.904;6.922;2023-02-15T13:24:42;14.50;99.90
28524;DHT22;15734;50.904;6.922;2023-02-15T13:27:10;14.40;99.90
28524;DHT22;15734;50.904;6.922;2023-02-15T13:29:38;14.60;99.90
28524;DHT22;15734;50.904;6.922;2023-02-15T13:32:10;15.00;99.90
28524;DHT22;15734;50.904;6.922;2023-02-15T13:34:38;14.60;99.90
28524;DHT22;15734;50.904;6.922;2023-02-15T13:37:13;14.70;99.90
28524;DHT22;15734;50.904;6.922;2023-02-15T13:47:32;15.20;99.90
28524;DHT22;15734;50.904;6.922;2023-02-15T13:52:31;15.40;99.90
28524;DHT22;15734;50.904;6.922;2023-02-15T13:55:07;15.20;99.90
28524;DHT22;15734;50.904;6.922;2023-02-15T14:05:47;14.80;99.90
28524;DHT22;15734;50.904;6.922;2023-02-15T14:11:17;15.10;99.90
28524;DHT22;15734;50.904;6.922;2023-02-15T14:16:51;15.00;99.90
28524;DHT22;15734;50.904;6.922;2023-02-15T14:19:30;14.90;99.90
28524;DHT22;15734;50.904;6.922;2023-02-15T14:22:00;14.90;99.90
28524;DHT22;15734;50.904;6.922;2023-02-15T14:24:38;14.90;99.90
28524;DHT22;15734;50.904;6.922;2023-02-15T14:32:23;14.50;99.90
28524;DHT22;15734;50.904;6.922;2023-02-15T14:34:55;14.40;99.90
28524;DHT22;15734;50.904;6.922;2023-02-15T14:37:24;14.10;99.90
28524;DHT22;15734;50.904;6.922;2023-02-15T14:40:10;14.20;99.90
28524;DHT22;15734;50.904;6.922;2023-02-15T14:43:07;14.00;99.90
28524;DHT22;15734;50.904;6.922;2023-02-15T14:48:33;13.80;99.90
28524;DHT22;15734;50.904;6.922;2023-02-15T14:51:01;13.60;99.90
28524;DHT22;15734;50.904;6.922;2023-02-15T14:53:37;13.60;99.90
28524;DHT22;15734;50.904;6.922;2023-02-15T14:58:35;13.30;99.90
28524;DHT22;15734;50.904;6.922;2023-02-15T15:01:07;13.30;99.90
28524;DHT22;15734;50.904;6.922;2023-02-15T15:03:33;13.20;99.90
28524;DHT22;15734;50.904;6.922;2023-02-15T15:06:01;13.10;99.90
28524;DHT22;15734;50.904;6.922;2023-02-15T15:08:29;12.90;99.90
28524;DHT22;15734;50.904;6.922;2023-02-15T15:10:57;13.00;99.90
28524;DHT22;15734;50.904;6.922;2023-02-15T15:13:53;12.90;99.90
28524;DHT22;15734;50.904;6.922;2023-02-15T15:19:00;12.70;99.90
28524;DHT22;15734;50.904;6.922;2023-02-15T15:24:09;12.60;99.90
28524;DHT22;15734;50.904;6.922;2023-02-15T15:29:39;12.40;99.90
28524;DHT22;15734;50.904;6.922;2023-02-15T15:32:05;12.20;99.90
28524;DHT22;15734;50.904;6.922;2023-02-15T15:37:11;12.20;99.90
28524;DHT22;15734;50.904;6.922;2023-02-15T15:50:14;11.90;99.90
28524;DHT22;15734;50.904;6.922;2023-02-15T15:52:42;11.70;99.90
28524;DHT22;15734;50.904;6.922;2023-02-15T15:55:14;11.80;99.90
28524;DHT22;15734;50.904;6.922;2023-02-15T15:57:41;11.70;99.90
28524;DHT22;15734;50.904;6.922;2023-02-15T16:02:52;11.60;99.90
28524;DHT22;15734;50.904;6.922;2023-02-15T16:05:18;11.50;99.90
28524;DHT22;15734;50.904;6.922;2023-02-15T16:07:44;11.40;99.90
28524;DHT22;15734;50.904;6.922;2023-02-15T16:10:23;11.20;99.90
28524;DHT22;15734;50.904;6.922;2023-02-15T16:12:49;11.20;99.90
28524;DHT22;15734;50.904;6.922;2023-02-15T16:15:25;10.90;99.90
28524;DHT22;15734;50.904;6.922;2023-02-15T16:17:52;10.90;99.90
28524;DHT22;15734;50.904;6.922;2023-02-15T16:20:29;10.90;99.90
28524;DHT22;15734;50.904;6.922;2023-02-15T16:25:42;10.70;99.90
28524;DHT22;15734;50.904;6.922;2023-02-15T16:28:11;10.70;99.90
28524;DHT22;15734;50.904;6.922;2023-02-15T16:30:37;10.70;99.90
28524;DHT22;15734;50.904;6.922;2023-02-15T16:33:14;10.60;99.90
28524;DHT22;15734;50.904;6.922;2023-02-15T16:35:52;10.40;99.90
28524;DHT22;15734;50.904;6.922;2023-02-15T16:38:18;10.40;99.90
28524;DHT22;15734;50.904;6.922;2023-02-15T16:40:48;10.30;99.90
28524;DHT22;15734;50.904;6.922;2023-02-15T16:43:20;10.30;99.90
28524;DHT22;15734;50.904;6.922;2023-02-15T16:45:48;10.20;99.90
28524;DHT22;15734;50.904;6.922;2023-02-15T16:48:16;10.10;99.90
28524;DHT22;15734;50.904;6.922;2023-02-15T16:50:46;10.10;99.90
28524;DHT22;15734;50.904;6.922;2023-02-15T16:53:14;10.00;99.90
28524;DHT22;15734;50.904;6.922;2023-02-15T16:55:41;9.90;99.90
28524;DHT22;15734;50.904;6.922;2023-02-15T16:58:11;9.80;99.90
28524;DHT22;15734;50.904;6.922;2023-02-15T17:00:38;9.80;99.90
28524;DHT22;15734;50.904;6.922;2023-02-15T17:05:45;9.70;99.90
28524;DHT22;15734;50.904;6.922;2023-02-15T17:08:15;9.60;99.90
28524;DHT22;15734;50.904;6.922;2023-02-15T17:10:42;9.60;99.90
28524;DHT22;15734;50.904;6.922;2023-02-15T17:13:13;9.40;99.90
28524;DHT22;15734;50.904;6.922;2023-02-15T17:15:43;9.40;99.90
28524;DHT22;15734;50.904;6.922;2023-02-15T17:18:12;9.30;99.90
28524;DHT22;15734;50.904;6.922;2023-02-15T17:20:40;9.30;99.90
28524;DHT22;15734;50.904;6.922;2023-02-15T17:23:15;9.30;99.90
28524;DHT22;15734;50.904;6.922;2023-02-15T17:25:43;9.30;99.90
28524;DHT22;15734;50.904;6.922;2023-02-15T17:28:15;9.20;99.90
28524;DHT22;15734;50.904;6.922;2023-02-15T17:30:42;9.10;99.90
28524;DHT22;15734;50.904;6.922;2023-02-15T17:36:01;9.00;99.90
28524;DHT22;15734;50.904;6.922;2023-02-15T17:38:27;9.00;99.90
28524;DHT22;15734;50.904;6.922;2023-02-15T17:40:52;8.90;99.90
28524;DHT22;15734;50.904;6.922;2023-02-15T17:43:18;8.90;99.90
28524;DHT22;15734;50.904;6.922;2023-02-15T17:45:44;8.80;99.90
28524;DHT22;15734;50.904;6.922;2023-02-15T17:48:15;8.80;99.90
28524;DHT22;15734;50.904;6.922;2023-02-15T17:50:43;8.70;99.90
28524;DHT22;15734;50.904;6.922;2023-02-15T17:53:08;8.70;99.90
28524;DHT22;15734;50.904;6.922;2023-02-15T17:55:34;8.60;99.90
28524;DHT22;15734;50.904;6.922;2023-02-15T17:57:59;8.50;99.90
28524;DHT22;15734;50.904;6.922;2023-02-15T18:00:25;8.50;99.90
28524;DHT22;15734;50.904;6.922;2023-02-15T18:03:10;8.50;99.90
28524;DHT22;15734;50.904;6.922;2023-02-15T18:05:54;8.50;99.90
28524;DHT22;15734;50.904;6.922;2023-02-15T18:08:38;8.40;99.90
28524;DHT22;15734;50.904;6.922;2023-02-15T18:11:22;8.30;99.90
28524;DHT22;15734;50.904;6.922;2023-02-15T18:14:04;8.30;99.90
28524;DHT22;15734;50.904;6.922;2023-02-15T18:16:30;8.30;99.90
28524;DHT22;15734;50.904;6.922;2023-02-15T18:18:57;8.20;99.90
28524;DHT22;15734;50.904;6.922;2023-02-15T18:21:23;8.20;99.90
28524;DHT22;15734;50.904;6.922;2023-02-15T18:23:48;8.20;99.90
28524;DHT22;15734;50.904;6.922;2023-02-15T18:26:21;8.10;99.90
28524;DHT22;15734;50.904;6.922;2023-02-15T18:28:47;8.10;99.90
28524;DHT22;15734;50.904;6.922;2023-02-15T18:31:13;8.00;99.90
28524;DHT22;15734;50.904;6.922;2023-02-15T18:33:41;8.00;99.90
28524;DHT22;15734;50.904;6.922;2023-02-15T18:36:12;8.00;99.90
28524;DHT22;15734;50.904;6.922;2023-02-15T18:38:39;7.90;99.90
28524;DHT22;15734;50.904;6.922;2023-02-15T18:41:04;7.80;99.90
28524;DHT22;15734;50.904;6.922;2023-02-15T18:43:30;7.80;99.90